This is the latest recevied weather packets stored in our database for station/object DL1NUX-15. If no packets are shown the sender has not sent any weather packets the latest 10 day(s).
| Time | Temp. | Humidity | Pressure | Rain* | Wind** | Luminosity | Snow |
|---|---|---|---|---|---|---|---|
| 1777322745 | 11.11° C | 51% | 1021.4 hPa | 0 mm | - | 0 W/m² | - |
| 1777321546 | 11.67° C | 49% | 1021.4 hPa | 0 mm | - | 0 W/m² | - |
| 1777320348 | 11.67° C | 48% | 1021.4 hPa | 0 mm | - | 0 W/m² | - |
| 1777319128 | 12.22° C | 47% | 1021.5 hPa | 0 mm | - | 0 W/m² | - |
| 1777314931 | 13.89° C | 43% | 1021 hPa | 0 mm | - | 0 W/m² | - |
| 1777313132 | 15° C | 40% | 1020.7 hPa | 0 mm | - | 10 W/m² | - |
| 1777312532 | 15.56° C | 39% | 1020.9 hPa | 0 mm | - | 15 W/m² | - |
| 1777311933 | 15.56° C | 38% | 1020.7 hPa | 0 mm | - | 23 W/m² | - |
| 1777310734 | 16.67° C | 35% | 1020.6 hPa | 0 mm | - | 49 W/m² | - |
| 1777310135 | 17.22° C | 35% | 1020.7 hPa | 0 mm | - | 82 W/m² | - |
| 1777308935 | 16.67° C | 37% | 1020.7 hPa | 0 mm | - | 61 W/m² | - |
| 1777307736 | 17.78° C | 36% | 1020.8 hPa | 0 mm | - | 102 W/m² | - |
| 1777305338 | 18.33° C | 34% | 1020.9 hPa | 0 mm | - | 180 W/m² | - |
| 1777303538 | 18.33° C | 33% | 1020.9 hPa | 0 mm | - | 266 W/m² | - |
| 1777302355 | 18.33° C | 34% | 1021.1 hPa | 0 mm | - | 280 W/m² | - |
| 1777301156 | 18.89° C | 32% | 1021.4 hPa | 0 mm | - | 336 W/m² | - |
| 1777295762 | 17.78° C | 33% | 1022.4 hPa | 0 mm | - | 347 W/m² | - |
| 1777293318 | 17.78° C | 32% | 1022.4 hPa | 0 mm | - | 481 W/m² | - |
| 1777291519 | 17.22° C | 33% | 1022.8 hPa | 0 mm | - | 558 W/m² | - |
| 1777290919 | 17.78° C | 33% | 1023 hPa | 0 mm | - | 513 W/m² | - |
| 1777289720 | 16.11° C | 33% | 1023.2 hPa | 0 mm | - | 495 W/m² | - |
| 1777289121 | 16.67° C | 31% | 1023.3 hPa | 0 mm | - | 547 W/m² | - |
| 1777286722 | 16.11° C | 35% | 1023.6 hPa | 0 mm | - | 598 W/m² | - |
| 1777286124 | 15.56° C | 37% | 1023.8 hPa | 0 mm | - | 595 W/m² | - |
| 1777285523 | 16.11° C | 38% | 1023.7 hPa | 0 mm | - | 574 W/m² | - |
* Rain latest hour (hover to see other rain measurements)
** Current wind speed in m/s (hover to see current wind gust speed)